createdAt,value
2022-10-17T00:00:48.238Z,12.09
2022-10-17T00:03:15.100Z,12.12
2022-10-17T00:05:45.811Z,11.91
2022-10-17T00:08:14.717Z,11.66
2022-10-17T00:10:41.448Z,12.04
2022-10-17T00:13:10.670Z,11.60
2022-10-17T00:15:37.167Z,11.94
2022-10-17T00:18:08.017Z,11.61
2022-10-17T00:20:37.696Z,11.86
2022-10-17T00:23:04.477Z,12.08
2022-10-17T00:25:31.022Z,11.97
2022-10-17T00:27:58.051Z,11.78
2022-10-17T00:30:25.167Z,11.92
2022-10-17T00:32:51.782Z,11.98
2022-10-17T00:35:18.850Z,11.91
2022-10-17T00:37:45.422Z,11.77
2022-10-17T00:40:12.554Z,11.92
2022-10-17T00:42:39.869Z,11.63
2022-10-17T00:45:20.061Z,11.77
2022-10-17T00:47:50.215Z,11.82
2022-10-17T00:50:20.267Z,11.81
2022-10-17T00:52:49.103Z,11.84
2022-10-17T00:55:21.698Z,11.72
2022-10-17T00:57:50.474Z,11.12
2022-10-17T01:00:19.605Z,11.71
2022-10-17T01:02:46.829Z,11.62
2022-10-17T01:05:15.713Z,11.58
2022-10-17T01:07:43.416Z,11.37
2022-10-17T01:10:11.107Z,11.26
2022-10-17T01:12:47.255Z,11.27
2022-10-17T01:15:35.784Z,11.50
2022-10-17T01:18:14.631Z,11.57
2022-10-17T01:20:58.950Z,11.60
2022-10-17T01:24:11.439Z,11.60
2022-10-17T01:27:06.804Z,11.41
2022-10-17T01:29:57.589Z,11.52
2022-10-17T01:32:38.999Z,11.66
2022-10-17T01:36:03.264Z,11.64
2022-10-17T01:38:43.512Z,11.59
2022-10-17T01:41:42.469Z,11.60
2022-10-17T01:44:26.077Z,11.48
2022-10-17T01:47:00.420Z,11.53
2022-10-17T01:49:30.029Z,11.11
2022-10-17T01:52:22.700Z,11.69
2022-10-17T01:54:55.440Z,11.46
2022-10-17T01:57:49.321Z,11.70
2022-10-17T02:00:21.084Z,11.65
2022-10-17T02:02:56.845Z,11.64
2022-10-17T02:05:28.388Z,11.59
2022-10-17T02:07:55.097Z,10.93
2022-10-17T02:10:34.675Z,11.29
2022-10-17T02:13:05.890Z,11.44
2022-10-17T02:16:05.107Z,11.41
2022-10-17T02:19:07.005Z,11.43
2022-10-17T02:21:41.008Z,11.28
2022-10-17T02:24:33.548Z,11.43
2022-10-17T02:27:08.883Z,11.42
2022-10-17T02:29:43.808Z,11.52
2022-10-17T02:32:27.469Z,11.30
2022-10-17T02:34:57.205Z,11.50
2022-10-17T02:37:29.414Z,11.64
2022-10-17T02:39:59.086Z,11.48
2022-10-17T02:42:27.736Z,11.62
2022-10-17T02:45:01.440Z,11.64
2022-10-17T02:47:50.063Z,11.46
2022-10-17T02:50:17.003Z,11.57
2022-10-17T02:52:55.779Z,11.45
2022-10-17T02:55:32.730Z,11.65
2022-10-17T02:58:05.942Z,11.35
2022-10-17T03:00:33.178Z,11.37
2022-10-17T03:03:00.400Z,11.20
2022-10-17T03:05:29.653Z,11.16
2022-10-17T03:07:57.081Z,11.57
2022-10-17T03:10:24.675Z,11.24
2022-10-17T03:12:52.542Z,11.13
2022-10-17T03:15:19.791Z,11.01
2022-10-17T03:17:47.059Z,11.52
2022-10-17T03:20:14.615Z,11.37
2022-10-17T03:22:41.684Z,11.45
2022-10-17T03:25:10.816Z,11.29
2022-10-17T03:27:38.039Z,11.47
2022-10-17T03:30:05.230Z,11.33
2022-10-17T03:32:34.765Z,11.12
2022-10-17T03:35:01.479Z,11.43
2022-10-17T03:37:28.636Z,11.10
2022-10-17T03:39:56.006Z,11.38
2022-10-17T03:42:22.980Z,10.95
2022-10-17T03:44:49.612Z,11.29
2022-10-17T03:47:17.351Z,11.08
2022-10-17T03:49:46.941Z,11.31
2022-10-17T03:52:15.175Z,11.29
2022-10-17T03:54:42.000Z,10.92
2022-10-17T03:57:08.894Z,11.30
2022-10-17T03:59:36.306Z,11.70
2022-10-17T04:02:07.985Z,11.53
2022-10-17T04:04:35.519Z,12.03
2022-10-17T04:07:04.332Z,11.64
2022-10-17T04:09:33.228Z,11.47
2022-10-17T04:12:05.989Z,11.74
2022-10-17T04:14:34.759Z,11.72
2022-10-17T04:17:02.870Z,11.35
2022-10-17T04:19:30.854Z,11.24
2022-10-17T04:21:58.624Z,11.51
2022-10-17T04:24:28.100Z,11.29
2022-10-17T04:27:04.980Z,11.38
2022-10-17T04:29:35.706Z,11.31
2022-10-17T04:32:08.603Z,10.99
2022-10-17T04:34:42.225Z,11.23
2022-10-17T04:37:09.044Z,11.04
2022-10-17T04:39:37.118Z,10.33
2022-10-17T04:42:03.772Z,10.95
2022-10-17T04:44:31.102Z,10.77
2022-10-17T04:46:58.622Z,10.92
2022-10-17T04:49:26.318Z,11.08
2022-10-17T04:51:56.967Z,10.96
2022-10-17T04:54:36.292Z,10.91
2022-10-17T04:57:07.620Z,10.96
2022-10-17T04:59:35.916Z,10.94
2022-10-17T05:02:15.744Z,10.93
2022-10-17T05:04:43.721Z,10.80
2022-10-17T05:07:11.675Z,10.61
2022-10-17T05:09:47.651Z,10.82
2022-10-17T05:12:15.182Z,10.50
2022-10-17T05:14:44.551Z,10.44
2022-10-17T05:17:11.190Z,11.01
2022-10-17T05:19:38.516Z,10.83
2022-10-17T05:22:08.837Z,10.78
2022-10-17T05:24:35.418Z,10.70
2022-10-17T05:27:02.028Z,10.79
2022-10-17T05:29:28.734Z,10.67
2022-10-17T05:32:05.300Z,10.86
2022-10-17T05:34:34.359Z,10.77
2022-10-17T05:37:00.886Z,10.59
2022-10-17T05:39:27.644Z,10.79
2022-10-17T05:41:55.690Z,10.49
2022-10-17T05:44:22.493Z,10.86
2022-10-17T05:46:54.296Z,10.53
2022-10-17T05:49:32.982Z,10.35
2022-10-17T05:52:10.218Z,10.53
2022-10-17T05:54:50.954Z,10.39
2022-10-17T05:57:17.890Z,10.16
2022-10-17T05:59:44.448Z,10.47
2022-10-17T06:02:13.911Z,10.11
2022-10-17T06:04:45.430Z,10.40
2022-10-17T06:07:14.126Z,10.08
2022-10-17T06:09:43.136Z,10.43
2022-10-17T06:12:10.620Z,10.25
2022-10-17T06:14:37.331Z,10.35
2022-10-17T06:17:12.085Z,9.94
2022-10-17T06:19:41.740Z,10.48
2022-10-17T06:22:08.674Z,10.55
2022-10-17T06:24:36.684Z,9.98
2022-10-17T06:27:10.809Z,10.27
2022-10-17T06:29:40.724Z,10.29
2022-10-17T06:32:11.309Z,10.55
2022-10-17T06:34:42.075Z,10.73
2022-10-17T06:37:09.615Z,10.86
2022-10-17T06:39:38.164Z,10.69
2022-10-17T06:42:13.567Z,11.53
2022-10-17T06:45:10.998Z,11.85
2022-10-17T06:47:56.394Z,12.03
2022-10-17T06:50:53.294Z,12.10
2022-10-17T06:53:30.978Z,12.18
2022-10-17T06:56:25.296Z,12.81
2022-10-17T06:59:07.441Z,12.68
2022-10-17T07:01:35.611Z,13.28
2022-10-17T07:04:04.686Z,13.49
2022-10-17T07:06:31.862Z,13.51
2022-10-17T07:09:07.056Z,14.01
2022-10-17T07:11:36.949Z,14.39
2022-10-17T07:14:03.791Z,14.63
2022-10-17T07:16:30.633Z,14.77
2022-10-17T07:19:04.665Z,15.09
2022-10-17T07:21:38.260Z,15.16
2022-10-17T07:24:08.165Z,15.00
2022-10-17T07:26:35.309Z,15.28
2022-10-17T07:29:02.687Z,15.36
2022-10-17T07:31:34.372Z,15.50
2022-10-17T07:34:01.747Z,15.58
2022-10-17T07:36:29.225Z,14.57
2022-10-17T07:38:57.222Z,14.75
2022-10-17T07:41:25.475Z,15.27
2022-10-17T07:43:52.828Z,15.07
2022-10-17T07:46:28.714Z,16.69
2022-10-17T07:48:56.432Z,16.27
2022-10-17T07:51:23.550Z,15.75
2022-10-17T07:53:50.355Z,16.75
2022-10-17T07:56:17.302Z,17.15
2022-10-17T07:58:46.046Z,17.36
2022-10-17T08:01:16.113Z,17.36
2022-10-17T08:03:45.043Z,17.62
2022-10-17T08:06:12.672Z,17.48
2022-10-17T08:08:39.463Z,17.61
2022-10-17T08:11:10.472Z,17.70
2022-10-17T08:13:38.056Z,17.73
2022-10-17T08:16:08.464Z,17.69
2022-10-17T08:18:37.084Z,17.97
2022-10-17T08:21:06.500Z,18.09
2022-10-17T08:23:33.270Z,18.21
2022-10-17T08:26:01.222Z,18.42
2022-10-17T08:28:28.525Z,18.35
2022-10-17T08:31:09.251Z,18.66
2022-10-17T08:33:36.348Z,18.81
2022-10-17T08:36:06.766Z,18.88
2022-10-17T08:38:35.746Z,18.40
2022-10-17T08:41:06.951Z,18.71
2022-10-17T08:43:48.716Z,18.97
2022-10-17T08:48:46.488Z,19.32
2022-10-17T08:51:21.594Z,19.10
2022-10-17T08:54:17.509Z,19.53
2022-10-17T08:56:50.333Z,19.64
2022-10-17T08:59:30.259Z,19.82
2022-10-17T09:02:16.117Z,20.05
2022-10-17T09:05:23.908Z,20.44
2022-10-17T09:08:31.901Z,20.72
2022-10-17T09:11:20.868Z,20.93
2022-10-17T09:14:17.688Z,21.23
2022-10-17T09:17:17.118Z,21.16
2022-10-17T09:19:54.030Z,21.58
2022-10-17T09:22:26.934Z,21.00
2022-10-17T09:24:59.294Z,21.04
2022-10-17T09:28:18.305Z,21.52
2022-10-17T09:30:50.045Z,21.37
2022-10-17T09:33:35.243Z,21.36
2022-10-17T09:36:14.681Z,20.97
2022-10-17T09:38:44.344Z,21.15
2022-10-17T09:41:44.128Z,20.80
2022-10-17T09:44:31.148Z,21.13
2022-10-17T09:47:20.101Z,21.32
2022-10-17T09:49:48.759Z,21.12
2022-10-17T09:52:35.872Z,21.11
2022-10-17T09:55:18.033Z,20.95
2022-10-17T09:58:14.645Z,21.08
2022-10-17T10:00:44.034Z,21.09
2022-10-17T10:03:13.062Z,21.03
2022-10-17T10:05:46.979Z,21.17
2022-10-17T10:08:19.600Z,21.04
2022-10-17T10:10:46.637Z,21.08
2022-10-17T10:13:13.048Z,21.27
2022-10-17T10:15:48.721Z,21.20
2022-10-17T10:18:36.427Z,21.38
2022-10-17T10:21:07.065Z,21.42
2022-10-17T10:23:35.180Z,20.69
2022-10-17T10:26:04.321Z,21.12
2022-10-17T10:28:36.617Z,20.75
2022-10-17T10:31:08.971Z,21.03
2022-10-17T10:33:45.789Z,21.25
2022-10-17T10:36:14.994Z,21.22
2022-10-17T10:38:42.784Z,21.26
2022-10-17T10:41:11.334Z,20.32
2022-10-17T10:43:49.140Z,21.20
2022-10-17T10:46:26.622Z,21.06
2022-10-17T10:48:58.456Z,21.18
2022-10-17T10:51:32.959Z,21.27
2022-10-17T10:54:15.879Z,21.21
2022-10-17T10:56:48.791Z,21.18
2022-10-17T10:59:26.647Z,21.32
2022-10-17T11:02:15.681Z,21.16
2022-10-17T11:05:14.823Z,21.29
2022-10-17T11:08:01.444Z,21.34
2022-10-17T11:10:44.497Z,21.44
2022-10-17T11:13:26.517Z,21.22
2022-10-17T11:15:59.689Z,21.30
2022-10-17T11:18:33.741Z,21.25
2022-10-17T11:21:13.778Z,21.04
2022-10-17T11:23:54.968Z,21.08
2022-10-17T11:26:35.362Z,21.15
2022-10-17T11:29:07.952Z,21.18
2022-10-17T11:31:39.167Z,21.17
2022-10-17T11:34:36.971Z,21.16
2022-10-17T11:37:12.281Z,21.02
2022-10-17T11:43:13.447Z,21.07
2022-10-17T11:45:48.048Z,20.89
2022-10-17T11:48:23.481Z,20.95
2022-10-17T11:54:13.028Z,20.78
2022-10-17T11:56:50.933Z,20.99
2022-10-17T11:59:37.689Z,20.97
2022-10-17T12:02:50.921Z,20.92
2022-10-17T12:05:58.115Z,20.66
2022-10-17T12:08:52.447Z,20.93
2022-10-17T12:11:35.314Z,20.91
2022-10-17T12:14:05.770Z,20.81
2022-10-17T12:16:35.776Z,21.02
2022-10-17T12:19:02.319Z,21.03
2022-10-17T12:21:49.198Z,20.68
2022-10-17T12:24:38.265Z,21.15
2022-10-17T12:27:38.691Z,21.06
2022-10-17T12:30:17.316Z,21.10
2022-10-17T12:33:06.124Z,21.06
2022-10-17T12:35:36.011Z,21.09
2022-10-17T12:38:23.126Z,20.94
2022-10-17T12:40:56.624Z,21.01
2022-10-17T12:43:30.955Z,21.00
2022-10-17T12:46:00.076Z,21.12
2022-10-17T12:48:33.176Z,21.14
2022-10-17T12:51:30.793Z,21.04
2022-10-17T12:53:59.798Z,20.97
2022-10-17T12:56:41.281Z,21.08
2022-10-17T12:59:14.760Z,21.07
2022-10-17T13:01:46.305Z,21.11
2022-10-17T13:04:15.524Z,20.96
2022-10-17T13:06:48.101Z,21.06
2022-10-17T13:09:25.050Z,21.10
2022-10-17T13:11:52.350Z,20.85
2022-10-17T13:14:21.371Z,21.05
2022-10-17T13:16:59.234Z,21.17
2022-10-17T13:19:31.616Z,21.18
2022-10-17T13:22:07.179Z,21.23
2022-10-17T13:24:41.026Z,21.16
2022-10-17T13:27:32.672Z,21.13
2022-10-17T13:30:02.850Z,21.18
2022-10-17T13:32:38.625Z,21.00
2022-10-17T13:35:11.388Z,21.19
2022-10-17T13:37:41.557Z,21.02
2022-10-17T13:40:44.135Z,21.13
2022-10-17T13:43:06.299Z,21.00
2022-10-17T13:45:37.269Z,21.08
2022-10-17T13:48:17.649Z,21.10
2022-10-17T13:50:50.431Z,21.03
2022-10-17T13:53:51.535Z,21.07
2022-10-17T13:56:28.266Z,21.02
2022-10-17T13:59:03.579Z,20.93
2022-10-17T14:01:31.305Z,20.88
2022-10-17T14:04:09.506Z,21.00
2022-10-17T14:06:49.745Z,20.80
2022-10-17T14:09:30.642Z,20.80
2022-10-17T14:12:07.200Z,20.80
2022-10-17T14:14:51.644Z,20.70
2022-10-17T14:17:27.696Z,20.68
2022-10-17T14:20:34.459Z,20.75
2022-10-17T14:23:17.429Z,20.37
2022-10-17T14:25:40.305Z,20.48
2022-10-17T14:28:14.415Z,20.59
2022-10-17T14:31:01.427Z,20.48
2022-10-17T14:33:31.103Z,20.17
2022-10-17T14:36:00.250Z,20.31
2022-10-17T14:38:29.308Z,20.42
2022-10-17T14:41:42.530Z,20.56
2022-10-17T14:44:19.053Z,20.56
2022-10-17T14:46:50.682Z,20.33
2022-10-17T14:49:25.150Z,20.46
2022-10-17T14:52:18.578Z,20.58
2022-10-17T14:54:49.981Z,20.47
2022-10-17T14:57:25.798Z,20.50
2022-10-17T14:59:56.368Z,20.28
2022-10-17T15:02:25.236Z,20.39
2022-10-17T15:04:52.190Z,20.02
2022-10-17T15:07:19.487Z,20.43
2022-10-17T15:09:48.834Z,20.03
2022-10-17T15:12:19.291Z,20.46
2022-10-17T15:14:47.870Z,20.46
2022-10-17T15:17:18.612Z,20.12
2022-10-17T15:19:45.215Z,20.01
2022-10-17T15:22:11.776Z,20.21
2022-10-17T15:24:38.905Z,19.65
2022-10-17T15:27:20.298Z,20.27
2022-10-17T15:29:48.071Z,20.22
2022-10-17T15:32:16.327Z,20.29
2022-10-17T15:34:44.278Z,20.21
2022-10-17T15:37:20.109Z,20.03
2022-10-17T15:39:52.988Z,20.03
2022-10-17T15:42:27.867Z,20.19
2022-10-17T15:44:55.760Z,20.04
2022-10-17T15:47:37.501Z,20.07
2022-10-17T15:50:06.186Z,19.90
2022-10-17T15:52:33.316Z,19.09
2022-10-17T15:55:02.552Z,19.77
2022-10-17T15:57:36.060Z,19.44
2022-10-17T16:00:04.273Z,19.69
2022-10-17T16:02:36.209Z,19.72
2022-10-17T16:05:06.231Z,19.81
2022-10-17T16:07:32.989Z,19.35
2022-10-17T16:09:59.682Z,19.43
2022-10-17T16:12:29.139Z,19.44
2022-10-17T16:14:56.606Z,19.21
2022-10-17T16:17:23.395Z,19.33
2022-10-17T16:19:50.140Z,19.49
2022-10-17T16:22:25.723Z,19.20
2022-10-17T16:24:58.514Z,19.25
2022-10-17T16:27:26.526Z,19.19
2022-10-17T16:29:53.201Z,19.12
2022-10-17T16:32:19.705Z,18.90
2022-10-17T16:34:46.214Z,18.84
2022-10-17T16:37:15.465Z,18.69
2022-10-17T16:39:42.034Z,18.60
2022-10-17T16:42:08.750Z,18.39
2022-10-17T16:44:35.358Z,18.58
2022-10-17T16:47:03.108Z,18.04
2022-10-17T16:49:29.658Z,18.22
2022-10-17T16:51:56.682Z,18.01
2022-10-17T16:54:23.447Z,18.06
2022-10-17T16:56:50.748Z,17.68
2022-10-17T16:59:17.295Z,17.86
2022-10-17T17:01:44.035Z,17.50
2022-10-17T17:04:10.643Z,17.37
2022-10-17T17:06:37.562Z,17.70
2022-10-17T17:09:04.874Z,17.83
2022-10-17T17:11:32.615Z,17.85
2022-10-17T17:14:02.708Z,17.53
2022-10-17T17:16:32.365Z,17.77
2022-10-17T17:19:01.982Z,17.64
2022-10-17T17:21:29.199Z,17.23
2022-10-17T17:23:58.279Z,16.88
2022-10-17T17:26:26.877Z,17.52
2022-10-17T17:28:54.250Z,17.46
2022-10-17T17:31:23.528Z,17.29
2022-10-17T17:33:51.471Z,17.24
2022-10-17T17:36:21.237Z,17.07
2022-10-17T17:38:49.377Z,17.07
2022-10-17T17:41:18.884Z,16.93
2022-10-17T17:43:46.868Z,17.00
2022-10-17T17:46:16.517Z,17.18
2022-10-17T17:48:48.545Z,17.20
2022-10-17T17:51:20.014Z,17.13
2022-10-17T17:53:47.403Z,17.13
2022-10-17T17:56:20.656Z,16.76
2022-10-17T17:58:57.387Z,16.83
2022-10-17T18:01:26.165Z,16.66
2022-10-17T18:03:55.588Z,16.51
2022-10-17T18:06:23.264Z,16.40
2022-10-17T18:08:56.050Z,16.10
2022-10-17T18:11:23.234Z,16.58
2022-10-17T18:13:57.750Z,16.50
2022-10-17T18:16:26.154Z,16.63
2022-10-17T18:18:52.763Z,16.58
2022-10-17T18:21:19.763Z,16.42
2022-10-17T18:23:47.975Z,16.50
2022-10-17T18:26:17.183Z,16.05
2022-10-17T18:28:44.449Z,16.41
2022-10-17T18:31:15.382Z,15.89
2022-10-17T18:33:42.929Z,16.06
2022-10-17T18:36:12.202Z,16.42
2022-10-17T18:38:39.169Z,16.29
2022-10-17T18:41:14.163Z,16.35
2022-10-17T18:43:43.774Z,16.27
2022-10-17T18:46:16.150Z,16.19
2022-10-17T18:48:44.918Z,15.95
2022-10-17T18:51:13.370Z,15.38
2022-10-17T18:53:45.567Z,15.88
2022-10-17T18:56:13.047Z,16.15
2022-10-17T18:58:40.527Z,16.26
2022-10-17T19:01:10.399Z,16.20
2022-10-17T19:03:38.476Z,16.20
2022-10-17T19:06:09.400Z,16.17
2022-10-17T19:08:37.323Z,15.91
2022-10-17T19:11:07.423Z,16.03
2022-10-17T19:13:34.923Z,15.72
2022-10-17T19:16:10.353Z,16.02
2022-10-17T19:18:37.753Z,16.07
2022-10-17T19:21:06.771Z,15.78
2022-10-17T19:23:36.125Z,15.99
2022-10-17T19:26:09.204Z,15.60
2022-10-17T19:28:38.145Z,15.89
2022-10-17T19:31:06.508Z,15.78
2022-10-17T19:33:33.611Z,15.81
2022-10-17T19:36:13.614Z,15.77
2022-10-17T19:38:40.316Z,15.45
2022-10-17T19:41:09.448Z,15.72
2022-10-17T19:43:38.254Z,15.74
2022-10-17T19:46:07.301Z,15.06
2022-10-17T19:48:39.441Z,15.39
2022-10-17T19:51:08.261Z,15.59
2022-10-17T19:53:35.405Z,15.66
2022-10-17T19:56:02.577Z,15.36
2022-10-17T19:58:31.983Z,15.45
2022-10-17T20:01:02.926Z,15.62
2022-10-17T20:03:30.269Z,15.47
2022-10-17T20:05:56.882Z,15.56
2022-10-17T20:08:23.503Z,15.45
2022-10-17T20:10:50.743Z,15.41
2022-10-17T20:13:17.319Z,15.42
2022-10-17T20:15:54.348Z,14.71
2022-10-17T20:18:21.146Z,15.52
2022-10-17T20:20:48.766Z,15.73
2022-10-17T20:23:15.364Z,14.79
2022-10-17T20:25:43.010Z,15.68
2022-10-17T20:28:09.894Z,15.56
2022-10-17T20:30:37.188Z,15.65
2022-10-17T20:33:03.968Z,15.54
2022-10-17T20:35:31.740Z,15.49
2022-10-17T20:37:58.362Z,15.35
2022-10-17T20:40:40.463Z,15.49
2022-10-17T20:43:14.160Z,15.55
2022-10-17T20:45:51.005Z,15.52
2022-10-17T20:48:18.250Z,15.29
2022-10-17T20:50:44.732Z,15.50
2022-10-17T20:56:08.776Z,15.18
2022-10-17T20:58:36.091Z,15.37
2022-10-17T21:01:10.274Z,15.35
2022-10-17T21:03:43.896Z,15.35
2022-10-17T21:06:13.845Z,15.33
2022-10-17T21:08:40.527Z,15.31
2022-10-17T21:11:28.608Z,15.13
2022-10-17T21:13:58.156Z,14.89
2022-10-17T21:16:25.556Z,15.01
2022-10-17T21:18:52.134Z,14.82
2022-10-17T21:21:22.967Z,14.96
2022-10-17T21:23:50.971Z,15.09
2022-10-17T21:26:18.506Z,15.01
2022-10-17T21:28:46.594Z,15.09
2022-10-17T21:31:22.479Z,14.83
2022-10-17T21:33:56.862Z,15.04
2022-10-17T21:36:25.039Z,15.05
2022-10-17T21:38:53.262Z,14.85
2022-10-17T21:44:17.102Z,15.05
2022-10-17T21:46:44.249Z,15.03
2022-10-17T21:49:12.962Z,14.92
2022-10-17T21:51:40.487Z,14.97
2022-10-17T21:54:08.180Z,15.00
2022-10-17T21:56:35.530Z,14.70
2022-10-17T21:59:03.089Z,14.91
2022-10-17T22:01:32.969Z,14.72
2022-10-17T22:04:01.817Z,14.70
2022-10-17T22:06:40.326Z,14.82
2022-10-17T22:09:23.701Z,14.87
2022-10-17T22:11:56.472Z,14.84
2022-10-17T22:14:26.366Z,14.74
2022-10-17T22:16:53.172Z,14.24
2022-10-17T22:19:22.887Z,14.77
2022-10-17T22:21:50.553Z,14.67
2022-10-17T22:26:47.816Z,14.05
2022-10-17T22:29:15.126Z,14.67
2022-10-17T22:31:41.714Z,14.66
2022-10-17T22:34:11.049Z,14.67
2022-10-17T22:36:37.578Z,14.75
2022-10-17T22:39:04.180Z,14.59
2022-10-17T22:41:31.312Z,14.80
2022-10-17T22:44:00.300Z,14.89
2022-10-17T22:46:27.429Z,14.56
2022-10-17T22:48:54.179Z,14.90
2022-10-17T22:51:20.958Z,14.71
2022-10-17T22:53:47.641Z,14.87
2022-10-17T22:56:18.130Z,14.97
2022-10-17T22:58:45.117Z,14.96
2022-10-17T23:01:16.344Z,14.89
2022-10-17T23:03:43.236Z,14.82
2022-10-17T23:06:10.168Z,14.99
2022-10-17T23:08:36.752Z,14.85
2022-10-17T23:11:05.045Z,14.94
2022-10-17T23:13:31.824Z,14.82
2022-10-17T23:15:58.840Z,14.63
2022-10-17T23:18:27.662Z,14.57
2022-10-17T23:20:56.661Z,14.52
2022-10-17T23:23:23.405Z,14.25
2022-10-17T23:25:50.742Z,14.58
2022-10-17T23:28:21.334Z,14.14
2022-10-17T23:30:48.071Z,14.66
2022-10-17T23:33:14.821Z,14.55
2022-10-17T23:35:42.362Z,14.44
2022-10-17T23:38:09.913Z,14.06
2022-10-17T23:40:38.103Z,13.80
2022-10-17T23:43:28.848Z,14.83
2022-10-17T23:45:56.659Z,14.83
2022-10-17T23:48:23.911Z,14.82
2022-10-17T23:50:50.552Z,14.85
2022-10-17T23:53:17.606Z,14.81
2022-10-17T23:55:46.251Z,14.41
2022-10-17T23:58:12.951Z,14.77
